createdAt,value
2023-03-17T00:00:16.849Z,6.56
2023-03-17T00:00:46.865Z,6.52
2023-03-17T00:01:16.860Z,6.51
2023-03-17T00:01:46.845Z,6.45
2023-03-17T00:02:16.886Z,6.42
2023-03-17T00:02:46.918Z,6.39
2023-03-17T00:03:16.867Z,6.4
2023-03-17T00:03:46.874Z,6.44
2023-03-17T00:04:16.849Z,6.45
2023-03-17T00:04:46.844Z,6.43
2023-03-17T00:05:16.842Z,6.36
2023-03-17T00:05:46.852Z,6.29
2023-03-17T00:06:16.846Z,6.25
2023-03-17T00:06:46.845Z,6.21
2023-03-17T00:07:16.843Z,6.24
2023-03-17T00:07:46.846Z,6.26
2023-03-17T00:08:16.847Z,6.26
2023-03-17T00:08:46.845Z,6.25
2023-03-17T00:09:16.842Z,6.29
2023-03-17T00:09:46.846Z,6.39
2023-03-17T00:10:16.845Z,6.44
2023-03-17T00:10:46.892Z,6.41
2023-03-17T00:11:16.873Z,6.37
2023-03-17T00:11:46.846Z,6.31
2023-03-17T00:12:16.841Z,6.28
2023-03-17T00:12:46.840Z,6.31
2023-03-17T00:13:16.846Z,6.34
2023-03-17T00:13:46.846Z,6.39
2023-03-17T00:14:16.866Z,6.45
2023-03-17T00:14:46.868Z,6.39
2023-03-17T00:15:16.844Z,6.36
2023-03-17T00:15:46.866Z,6.35
2023-03-17T00:16:17.029Z,6.4
2023-03-17T00:16:46.842Z,6.44
2023-03-17T00:17:16.846Z,6.48
2023-03-17T00:17:46.844Z,6.48
2023-03-17T00:18:16.846Z,6.48
2023-03-17T00:18:46.855Z,6.48
2023-03-17T00:19:16.849Z,6.49
2023-03-17T00:19:46.848Z,6.44
2023-03-17T00:20:16.849Z,6.39
2023-03-17T00:20:46.857Z,6.37
2023-03-17T00:21:16.862Z,6.35
2023-03-17T00:21:46.854Z,6.33
2023-03-17T00:22:16.850Z,6.31
2023-03-17T00:22:46.845Z,6.31
2023-03-17T00:23:16.861Z,6.29
2023-03-17T00:23:46.849Z,6.33
2023-03-17T00:24:16.850Z,6.31
2023-03-17T00:24:46.850Z,6.29
2023-03-17T00:25:16.856Z,6.3
2023-03-17T00:25:46.870Z,6.24
2023-03-17T00:26:16.857Z,6.19
2023-03-17T00:26:46.854Z,6.19
2023-03-17T00:27:16.844Z,6.16
2023-03-17T00:27:46.844Z,6.15
2023-03-17T00:28:16.853Z,6.18
2023-03-17T00:28:46.847Z,6.1
2023-03-17T00:29:16.846Z,6.08
2023-03-17T00:29:46.847Z,6.02
2023-03-17T00:30:16.860Z,6.01
2023-03-17T00:30:46.853Z,6.02
2023-03-17T00:31:17.017Z,6.05
2023-03-17T00:31:46.879Z,6.09
2023-03-17T00:32:16.845Z,6.17
2023-03-17T00:32:46.935Z,6.24
2023-03-17T00:33:16.865Z,6.23
2023-03-17T00:33:46.847Z,6.22
2023-03-17T00:34:16.871Z,6.21
2023-03-17T00:34:46.848Z,6.21
2023-03-17T00:35:16.850Z,6.13
2023-03-17T00:35:46.862Z,6.13
2023-03-17T00:36:16.854Z,6.09
2023-03-17T00:36:46.846Z,6.05
2023-03-17T00:37:16.847Z,6
2023-03-17T00:37:46.847Z,5.98
2023-03-17T00:38:16.849Z,5.93
2023-03-17T00:38:46.846Z,5.96
2023-03-17T00:39:47.722Z,6.07
2023-03-17T00:40:16.857Z,6.05
2023-03-17T00:41:17.588Z,5.97
2023-03-17T00:42:17.696Z,5.9
2023-03-17T00:42:46.846Z,5.86
2023-03-17T00:43:16.846Z,5.84
2023-03-17T00:43:46.846Z,5.82
2023-03-17T00:44:16.844Z,5.83
2023-03-17T00:44:46.844Z,5.86
2023-03-17T00:45:16.847Z,5.92
2023-03-17T00:45:46.865Z,6.01
2023-03-17T00:46:16.906Z,6.08
2023-03-17T00:46:46.899Z,6.05
2023-03-17T00:47:16.865Z,6.04
2023-03-17T00:47:46.850Z,6.03
2023-03-17T00:48:16.845Z,6.08
2023-03-17T00:48:46.849Z,6.11
2023-03-17T00:49:47.784Z,5.98
2023-03-17T00:50:16.850Z,5.98
2023-03-17T00:50:46.850Z,6
2023-03-17T00:51:16.849Z,6.01
2023-03-17T00:51:46.849Z,6.05
2023-03-17T00:52:16.857Z,6.12
2023-03-17T00:52:46.862Z,6.17
2023-03-17T00:53:16.844Z,6.16
2023-03-17T00:53:46.848Z,6.13
2023-03-17T00:54:16.860Z,6.1
2023-03-17T00:54:46.856Z,6.05
2023-03-17T00:55:16.849Z,6.06
2023-03-17T00:55:46.854Z,6.08
2023-03-17T00:56:16.842Z,6.06
2023-03-17T00:56:46.848Z,6.07
2023-03-17T00:57:16.846Z,6.05
2023-03-17T00:57:46.845Z,6.03
2023-03-17T00:58:16.843Z,6.03
2023-03-17T00:58:46.844Z,6.07
2023-03-17T00:59:19.178Z,6.11
2023-03-17T00:59:46.844Z,6.15
2023-03-17T01:00:16.846Z,6.12
2023-03-17T01:00:46.923Z,6.05
2023-03-17T01:01:16.889Z,6.04
2023-03-17T01:01:46.850Z,6.06
2023-03-17T01:02:16.903Z,6.02
2023-03-17T01:02:46.846Z,5.95
2023-03-17T01:03:16.847Z,5.92
2023-03-17T01:03:46.861Z,5.92
2023-03-17T01:04:16.856Z,5.9
2023-03-17T01:04:52.889Z,5.9
2023-03-17T01:05:18.798Z,5.89
2023-03-17T01:05:46.851Z,5.88
2023-03-17T01:06:16.847Z,5.82
2023-03-17T01:06:46.848Z,5.76
2023-03-17T01:07:16.856Z,5.74
2023-03-17T01:07:46.853Z,5.74
2023-03-17T01:08:16.851Z,5.74
2023-03-17T01:08:46.848Z,5.76
2023-03-17T01:09:16.860Z,5.79
2023-03-17T01:09:46.850Z,5.81
2023-03-17T01:10:16.845Z,5.85
2023-03-17T01:10:46.845Z,5.78
2023-03-17T01:11:16.844Z,5.75
2023-03-17T01:11:46.846Z,5.69
2023-03-17T01:12:16.842Z,5.69
2023-03-17T01:12:46.849Z,5.66
2023-03-17T01:13:16.851Z,5.67
2023-03-17T01:13:46.926Z,5.7
2023-03-17T01:14:16.879Z,5.69
2023-03-17T01:14:46.847Z,5.66
2023-03-17T01:15:16.849Z,5.6
2023-03-17T01:15:46.850Z,5.61
2023-03-17T01:16:16.904Z,5.56
2023-03-17T01:16:46.871Z,5.56
2023-03-17T01:17:16.843Z,5.54
2023-03-17T01:17:46.849Z,5.56
2023-03-17T01:18:16.870Z,5.62
2023-03-17T01:18:46.900Z,5.65
2023-03-17T01:19:16.920Z,5.7
2023-03-17T01:19:46.852Z,5.77
2023-03-17T01:20:16.852Z,5.84
2023-03-17T01:20:46.846Z,5.85
2023-03-17T01:21:16.852Z,5.85
2023-03-17T01:21:46.848Z,5.84
2023-03-17T01:22:16.853Z,5.76
2023-03-17T01:22:46.845Z,5.72
2023-03-17T01:23:16.854Z,5.72
2023-03-17T01:23:46.848Z,5.75
2023-03-17T01:24:16.851Z,5.78
2023-03-17T01:24:46.859Z,5.82
2023-03-17T01:25:16.848Z,5.88
2023-03-17T01:25:46.882Z,5.92
2023-03-17T01:26:16.847Z,5.88
2023-03-17T01:26:46.877Z,5.86
2023-03-17T01:27:16.849Z,5.82
2023-03-17T01:27:46.857Z,5.81
2023-03-17T01:28:16.847Z,5.82
2023-03-17T01:28:46.848Z,5.83
2023-03-17T01:29:16.887Z,5.75
2023-03-17T01:29:46.847Z,5.66
2023-03-17T01:30:16.850Z,5.62
2023-03-17T01:30:46.880Z,5.61
2023-03-17T01:31:16.861Z,5.63
2023-03-17T01:31:46.914Z,5.65
2023-03-17T01:32:16.851Z,5.66
2023-03-17T01:32:46.890Z,5.6
2023-03-17T01:33:16.852Z,5.58
2023-03-17T01:33:46.855Z,5.57
2023-03-17T01:34:16.862Z,5.54
2023-03-17T01:34:46.867Z,5.53
2023-03-17T01:35:16.852Z,5.57
2023-03-17T01:35:46.913Z,5.58
2023-03-17T01:36:16.855Z,5.6
2023-03-17T01:36:46.859Z,5.58
2023-03-17T01:37:16.858Z,5.57
2023-03-17T01:37:46.853Z,5.52
2023-03-17T01:38:16.852Z,5.45
2023-03-17T01:38:46.851Z,5.43
2023-03-17T01:39:16.860Z,5.43
2023-03-17T01:39:46.850Z,5.48
2023-03-17T01:40:16.855Z,5.55
2023-03-17T01:40:46.864Z,5.63
2023-03-17T01:41:16.853Z,5.72
2023-03-17T01:41:46.855Z,5.76
2023-03-17T01:42:16.850Z,5.72
2023-03-17T01:42:46.854Z,5.62
2023-03-17T01:43:16.852Z,5.54
2023-03-17T01:43:46.850Z,5.53
2023-03-17T01:44:16.926Z,5.55
2023-03-17T01:44:46.856Z,5.62
2023-03-17T01:45:16.850Z,5.67
2023-03-17T01:45:46.872Z,5.75
2023-03-17T01:46:16.848Z,5.72
2023-03-17T01:46:46.850Z,5.64
2023-03-17T01:47:16.858Z,5.61
2023-03-17T01:47:46.854Z,5.64
2023-03-17T01:48:16.863Z,5.64
2023-03-17T01:48:46.852Z,5.65
2023-03-17T01:49:16.856Z,5.66
2023-03-17T01:49:46.847Z,5.69
2023-03-17T01:50:16.860Z,5.72
2023-03-17T01:50:46.852Z,5.7
2023-03-17T01:51:16.862Z,5.69
2023-03-17T01:51:46.851Z,5.64
2023-03-17T01:52:16.856Z,5.62
2023-03-17T01:52:46.857Z,5.62
2023-03-17T01:53:16.851Z,5.68
2023-03-17T01:53:46.860Z,5.74
2023-03-17T01:54:16.858Z,5.82
2023-03-17T01:54:46.853Z,5.83
2023-03-17T01:55:16.848Z,5.85
2023-03-17T01:55:46.850Z,5.81
2023-03-17T01:56:16.864Z,5.76
2023-03-17T01:56:46.850Z,5.71
2023-03-17T01:57:16.863Z,5.7
2023-03-17T01:57:46.849Z,5.69
2023-03-17T01:58:16.863Z,5.75
2023-03-17T01:58:46.860Z,5.76
2023-03-17T01:59:16.854Z,5.79
2023-03-17T01:59:46.877Z,5.83
2023-03-17T02:00:16.878Z,5.87
2023-03-17T02:00:46.868Z,5.89
2023-03-17T02:01:16.897Z,5.92
2023-03-17T02:01:46.851Z,5.96
2023-03-17T02:02:16.860Z,5.97
2023-03-17T02:02:46.857Z,5.93
2023-03-17T02:03:16.854Z,5.93
2023-03-17T02:03:46.883Z,5.93
2023-03-17T02:04:16.911Z,5.95
2023-03-17T02:04:46.861Z,5.96
2023-03-17T02:05:16.869Z,5.94
2023-03-17T02:05:46.851Z,5.94
2023-03-17T02:06:16.855Z,5.95
2023-03-17T02:06:57.348Z,5.94
2023-03-17T02:07:17.686Z,5.91
2023-03-17T02:07:46.858Z,5.9
2023-03-17T02:08:16.861Z,5.83
2023-03-17T02:08:46.856Z,5.81
2023-03-17T02:09:16.861Z,5.79
2023-03-17T02:09:46.859Z,5.77
2023-03-17T02:10:16.853Z,5.8
2023-03-17T02:10:46.856Z,5.82
2023-03-17T02:11:16.855Z,5.82
2023-03-17T02:11:46.875Z,5.8
2023-03-17T02:12:16.851Z,5.8
2023-03-17T02:12:46.851Z,5.71
2023-03-17T02:13:16.878Z,5.65
2023-03-17T02:13:46.851Z,5.62
2023-03-17T02:14:16.850Z,5.63
2023-03-17T02:14:46.859Z,5.66
2023-03-17T02:15:16.851Z,5.72
2023-03-17T02:15:46.859Z,5.8
2023-03-17T02:16:16.931Z,5.81
2023-03-17T02:16:46.914Z,5.83
2023-03-17T02:17:16.904Z,5.81
2023-03-17T02:17:46.860Z,5.8
2023-03-17T02:18:16.862Z,5.76
2023-03-17T02:18:46.864Z,5.76
2023-03-17T02:19:16.849Z,5.79
2023-03-17T02:19:46.852Z,5.72
2023-03-17T02:20:16.858Z,5.67
2023-03-17T02:20:46.871Z,5.65
2023-03-17T02:21:16.862Z,5.64
2023-03-17T02:21:46.855Z,5.63
2023-03-17T02:22:16.857Z,5.64
2023-03-17T02:22:46.853Z,5.62
2023-03-17T02:23:16.858Z,5.6
2023-03-17T02:23:46.853Z,5.58
2023-03-17T02:24:16.859Z,5.48
2023-03-17T02:24:46.856Z,5.47
2023-03-17T02:25:16.856Z,5.48
2023-03-17T02:25:46.863Z,5.53
2023-03-17T02:26:16.855Z,5.58
2023-03-17T02:26:46.856Z,5.53
2023-03-17T02:27:16.856Z,5.49
2023-03-17T02:27:46.866Z,5.53
2023-03-17T02:28:16.852Z,5.59
2023-03-17T02:28:46.851Z,5.67
2023-03-17T02:29:16.851Z,5.73
2023-03-17T02:29:46.852Z,5.75
2023-03-17T02:30:16.883Z,5.72
2023-03-17T02:30:46.916Z,5.71
2023-03-17T02:31:16.916Z,5.73
2023-03-17T02:31:46.860Z,5.76
2023-03-17T02:32:16.862Z,5.7
2023-03-17T02:32:46.904Z,5.69
2023-03-17T02:33:16.855Z,5.75
2023-03-17T02:33:46.854Z,5.76
2023-03-17T02:34:16.859Z,5.8
2023-03-17T02:34:46.859Z,5.84
2023-03-17T02:35:16.859Z,5.83
2023-03-17T02:35:46.910Z,5.84
2023-03-17T02:36:16.898Z,5.83
2023-03-17T02:36:47.050Z,5.81
2023-03-17T02:37:16.859Z,5.81
2023-03-17T02:37:46.882Z,5.83
2023-03-17T02:38:16.863Z,5.86
2023-03-17T02:38:46.856Z,5.87
2023-03-17T02:39:16.855Z,5.8
2023-03-17T02:39:46.869Z,5.78
2023-03-17T02:40:16.877Z,5.78
2023-03-17T02:40:46.854Z,5.81
2023-03-17T02:41:16.855Z,5.84
2023-03-17T02:41:46.861Z,5.86
2023-03-17T02:42:16.875Z,5.84
2023-03-17T02:42:46.872Z,5.86
2023-03-17T02:43:16.859Z,5.87
2023-03-17T02:43:46.857Z,5.9
2023-03-17T02:44:16.856Z,5.94
2023-03-17T02:44:46.862Z,5.98
2023-03-17T02:45:16.859Z,6.03
2023-03-17T02:45:46.910Z,6.02
2023-03-17T02:46:16.948Z,6.02
2023-03-17T02:46:46.864Z,5.96
2023-03-17T02:47:16.867Z,5.93
2023-03-17T02:47:46.863Z,5.91
2023-03-17T02:48:16.867Z,5.89
2023-03-17T02:48:46.871Z,5.86
2023-03-17T02:49:16.861Z,5.86
2023-03-17T02:49:46.869Z,5.86
2023-03-17T02:50:16.873Z,5.91
2023-03-17T02:50:46.867Z,5.95
2023-03-17T02:51:16.869Z,5.99
2023-03-17T02:51:46.858Z,6.03
2023-03-17T02:52:16.868Z,6.02
2023-03-17T02:52:46.869Z,6.05
2023-03-17T02:53:16.867Z,6.03
2023-03-17T02:53:46.871Z,5.97
2023-03-17T02:54:16.864Z,5.96
2023-03-17T02:54:46.863Z,6
2023-03-17T02:55:16.864Z,6.01
2023-03-17T02:55:46.871Z,5.92
2023-03-17T02:56:16.872Z,5.83
2023-03-17T02:56:46.867Z,5.8
2023-03-17T02:57:16.867Z,5.77
2023-03-17T02:57:46.863Z,5.72
2023-03-17T02:58:16.863Z,5.76
2023-03-17T02:58:46.861Z,5.82
2023-03-17T02:59:16.862Z,5.9
2023-03-17T02:59:46.871Z,5.95
2023-03-17T03:00:16.861Z,6.03
2023-03-17T03:00:46.882Z,6.1
2023-03-17T03:01:16.901Z,6.17
2023-03-17T03:01:46.918Z,6.24
2023-03-17T03:02:16.964Z,6.26
2023-03-17T03:02:46.929Z,6.27
2023-03-17T03:03:16.865Z,6.25
2023-03-17T03:03:46.863Z,6.22
2023-03-17T03:04:16.864Z,6.19
2023-03-17T03:04:46.864Z,6.16
2023-03-17T03:05:16.862Z,6.16
2023-03-17T03:05:46.883Z,6.17
2023-03-17T03:06:16.879Z,6.17
2023-03-17T03:06:46.895Z,6.16
2023-03-17T03:07:16.866Z,6.17
2023-03-17T03:07:46.877Z,6.16
2023-03-17T03:08:16.864Z,6.17
2023-03-17T03:08:46.869Z,6.16
2023-03-17T03:09:16.866Z,6.18
2023-03-17T03:09:46.870Z,6.23
2023-03-17T03:10:16.867Z,6.23
2023-03-17T03:10:46.881Z,6.25
2023-03-17T03:11:16.863Z,6.22
2023-03-17T03:11:46.867Z,6.24
2023-03-17T03:12:16.880Z,6.28
2023-03-17T03:12:46.865Z,6.32
2023-03-17T03:13:16.871Z,6.36
2023-03-17T03:13:46.866Z,6.36
2023-03-17T03:14:16.867Z,6.37
2023-03-17T03:14:46.870Z,6.39
2023-03-17T03:15:16.865Z,6.34
2023-03-17T03:15:46.909Z,6.33
2023-03-17T03:16:16.950Z,6.31
2023-03-17T03:16:46.868Z,6.33
2023-03-17T03:17:16.868Z,6.3
2023-03-17T03:17:46.865Z,6.17
2023-03-17T03:18:16.866Z,6.05
2023-03-17T03:18:46.866Z,6.02
2023-03-17T03:19:16.887Z,6.06
2023-03-17T03:19:46.898Z,6.12
2023-03-17T03:20:16.888Z,6.18
2023-03-17T03:20:46.876Z,6.22
2023-03-17T03:21:16.865Z,6.19
2023-03-17T03:21:46.868Z,6.22
2023-03-17T03:22:16.864Z,6.28
2023-03-17T03:22:46.863Z,6.35
2023-03-17T03:23:16.866Z,6.42
2023-03-17T03:23:46.898Z,6.49
2023-03-17T03:24:16.863Z,6.52
2023-03-17T03:24:46.876Z,6.53
2023-03-17T03:25:16.871Z,6.56
2023-03-17T03:25:46.869Z,6.57
2023-03-17T03:26:16.873Z,6.57
2023-03-17T03:26:46.875Z,6.59
2023-03-17T03:27:16.884Z,6.64
2023-03-17T03:27:46.896Z,6.64
2023-03-17T03:28:16.866Z,6.62
2023-03-17T03:28:46.865Z,6.58
2023-03-17T03:29:16.894Z,6.57
2023-03-17T03:29:46.870Z,6.58
2023-03-17T03:30:16.867Z,6.61
2023-03-17T03:30:46.919Z,6.62
2023-03-17T03:31:16.928Z,6.61
2023-03-17T03:31:46.866Z,6.63
2023-03-17T03:32:16.864Z,6.66
2023-03-17T03:32:46.982Z,6.73
2023-03-17T03:33:16.872Z,6.82
2023-03-17T03:33:46.868Z,6.84
2023-03-17T03:34:16.867Z,6.83
2023-03-17T03:34:46.882Z,6.88
2023-03-17T03:35:16.872Z,6.96
2023-03-17T03:35:46.922Z,7.07
2023-03-17T03:36:16.869Z,7.18
2023-03-17T03:36:46.883Z,7.29
2023-03-17T03:37:16.870Z,7.27
2023-03-17T03:37:46.874Z,7.21
2023-03-17T03:38:16.884Z,7.2
2023-03-17T03:38:46.881Z,7.23
2023-03-17T03:39:16.876Z,7.2
2023-03-17T03:39:46.876Z,7.2
2023-03-17T03:40:16.868Z,7.17
2023-03-17T03:40:46.879Z,7.17
2023-03-17T03:41:16.874Z,7.21
2023-03-17T03:41:46.879Z,7.26
2023-03-17T03:42:16.869Z,7.33
2023-03-17T03:42:46.870Z,7.41
2023-03-17T03:43:23.363Z,7.42
2023-03-17T03:43:47.908Z,7.38
2023-03-17T03:44:16.874Z,7.28
2023-03-17T03:44:46.867Z,7.17
2023-03-17T03:45:16.873Z,7.03
2023-03-17T03:45:46.914Z,6.98
2023-03-17T03:46:16.978Z,7.05
2023-03-17T03:46:46.910Z,7.13
2023-03-17T03:47:16.868Z,7.23
2023-03-17T03:47:46.878Z,7.35
2023-03-17T03:48:16.906Z,7.56
2023-03-17T03:48:46.862Z,7.74
2023-03-17T03:49:16.870Z,7.8
2023-03-17T03:49:46.872Z,7.81
2023-03-17T03:50:16.893Z,7.8
2023-03-17T03:50:46.923Z,7.85
2023-03-17T03:51:16.872Z,7.93
2023-03-17T03:51:46.873Z,7.94
2023-03-17T03:52:16.864Z,7.98
2023-03-17T03:52:46.870Z,8.01
2023-03-17T03:53:16.868Z,8.06
2023-03-17T03:53:46.867Z,8.07
2023-03-17T03:54:16.864Z,8.09
2023-03-17T03:54:46.877Z,8.13
2023-03-17T03:55:16.868Z,8.17
2023-03-17T03:55:46.877Z,8.16
2023-03-17T03:56:16.866Z,8.15
2023-03-17T03:56:46.868Z,8.14
2023-03-17T03:57:16.867Z,8.12
2023-03-17T03:57:46.867Z,8.16
2023-03-17T03:58:16.876Z,8.13
2023-03-17T03:58:46.866Z,8.11
2023-03-17T03:59:16.872Z,8.08
2023-03-17T03:59:46.867Z,8.08
2023-03-17T04:00:16.871Z,8.13
2023-03-17T04:00:46.891Z,8.07
2023-03-17T04:01:16.873Z,8.08
2023-03-17T04:01:46.867Z,8.12
2023-03-17T04:02:16.865Z,8.01
2023-03-17T04:02:47.044Z,7.96
2023-03-17T04:03:16.870Z,7.98
2023-03-17T04:03:46.867Z,8
2023-03-17T04:04:16.867Z,7.89
2023-03-17T04:04:46.949Z,7.83
2023-03-17T04:05:16.866Z,7.73
2023-03-17T04:05:46.867Z,7.65
2023-03-17T04:06:16.876Z,7.69
2023-03-17T04:06:46.878Z,7.81
2023-03-17T04:07:16.901Z,7.95
2023-03-17T04:07:46.864Z,8.1
2023-03-17T04:08:16.862Z,8.24
2023-03-17T04:08:46.866Z,8.36
2023-03-17T04:09:16.867Z,8.49
2023-03-17T04:09:46.872Z,8.59
2023-03-17T04:10:16.869Z,8.68
2023-03-17T04:10:46.864Z,8.76
2023-03-17T04:11:16.864Z,8.8
2023-03-17T04:11:46.872Z,8.87
2023-03-17T04:12:16.865Z,8.91
2023-03-17T04:12:46.872Z,8.92
2023-03-17T04:13:16.871Z,8.97
2023-03-17T04:13:46.865Z,9.03
2023-03-17T04:14:16.868Z,9.08
2023-03-17T04:14:46.878Z,9.01
2023-03-17T04:15:16.892Z,8.82
2023-03-17T04:15:46.910Z,8.66
2023-03-17T04:16:16.895Z,8.66
2023-03-17T04:16:46.867Z,8.57
2023-03-17T04:17:16.865Z,8.55
2023-03-17T04:17:46.868Z,8.6
2023-03-17T04:18:16.874Z,8.7
2023-03-17T04:18:46.938Z,8.83
2023-03-17T04:19:16.884Z,8.92
2023-03-17T04:19:46.870Z,9
2023-03-17T04:20:16.864Z,8.94
2023-03-17T04:20:46.879Z,8.91
2023-03-17T04:21:16.871Z,8.86
2023-03-17T04:21:46.873Z,8.89
2023-03-17T04:22:16.865Z,8.93
2023-03-17T04:22:46.876Z,8.95
2023-03-17T04:23:16.866Z,8.99
2023-03-17T04:23:46.866Z,8.97
2023-03-17T04:24:16.870Z,8.86
2023-03-17T04:24:46.875Z,8.84
2023-03-17T04:25:16.874Z,8.78
2023-03-17T04:25:46.870Z,8.8
2023-03-17T04:26:16.868Z,8.91
2023-03-17T04:26:46.880Z,9.02
2023-03-17T04:27:16.890Z,9.17
2023-03-17T04:27:46.871Z,9.25
2023-03-17T04:28:16.866Z,9.32
2023-03-17T04:28:46.872Z,9.42
2023-03-17T04:29:16.873Z,9.54
2023-03-17T04:29:46.865Z,9.69
2023-03-17T04:30:17.167Z,9.76
2023-03-17T04:30:46.868Z,9.86
2023-03-17T04:31:16.927Z,9.93
2023-03-17T04:31:46.910Z,9.91
2023-03-17T04:32:16.868Z,9.82
2023-03-17T04:32:46.907Z,9.72
2023-03-17T04:33:16.867Z,9.54
2023-03-17T04:33:46.885Z,9.37
2023-03-17T04:34:16.875Z,9.26
2023-03-17T04:34:46.885Z,9.2
2023-03-17T04:35:16.866Z,9.24
2023-03-17T04:35:46.943Z,9.38
2023-03-17T04:36:16.865Z,9.58
2023-03-17T04:36:46.880Z,9.62
2023-03-17T04:37:16.873Z,9.65
2023-03-17T04:37:46.871Z,9.75
2023-03-17T04:38:16.881Z,9.85
2023-03-17T04:38:46.870Z,10.02
2023-03-17T04:39:16.867Z,10.01
2023-03-17T04:39:46.874Z,9.93
2023-03-17T04:40:16.867Z,9.92
2023-03-17T04:40:46.869Z,9.81
2023-03-17T04:41:16.873Z,9.73
2023-03-17T04:41:46.872Z,9.78
2023-03-17T04:42:16.870Z,9.83
2023-03-17T04:42:46.869Z,9.79
2023-03-17T04:43:16.871Z,9.72
2023-03-17T04:43:46.878Z,9.76
2023-03-17T04:44:16.872Z,9.72
2023-03-17T04:44:46.874Z,9.71
2023-03-17T04:45:16.883Z,9.77
2023-03-17T04:45:46.914Z,9.8
2023-03-17T04:46:16.937Z,9.92
2023-03-17T04:46:46.883Z,10.11
2023-03-17T04:47:16.873Z,10.45
2023-03-17T04:47:46.873Z,10.96
2023-03-17T04:48:16.891Z,11.68
2023-03-17T04:48:46.891Z,12.45
2023-03-17T04:49:16.876Z,13.45
2023-03-17T04:49:46.879Z,14.5
2023-03-17T04:50:16.869Z,15.24
2023-03-17T04:50:46.871Z,16.02
2023-03-17T04:51:16.866Z,16.82
2023-03-17T04:51:46.872Z,17.89
2023-03-17T04:52:16.868Z,18.81
2023-03-17T04:52:46.875Z,19.53
2023-03-17T04:53:16.876Z,20.22
2023-03-17T04:53:46.880Z,20.61
2023-03-17T04:54:16.877Z,20.69
2023-03-17T04:54:46.896Z,20.74
2023-03-17T04:55:16.872Z,20.13
2023-03-17T04:55:46.878Z,19.37
2023-03-17T04:56:16.892Z,19.01
2023-03-17T04:56:46.873Z,19.04
2023-03-17T04:57:16.880Z,19.12
2023-03-17T04:57:46.892Z,19.05
2023-03-17T04:58:29.931Z,19.14
2023-03-17T04:58:47.788Z,19.19
2023-03-17T04:59:16.881Z,19.38
2023-03-17T04:59:46.887Z,19.25
2023-03-17T05:00:16.874Z,19.15
2023-03-17T05:00:46.918Z,19.12
2023-03-17T05:01:16.890Z,19.21
2023-03-17T05:01:46.874Z,19.51
2023-03-17T05:02:16.924Z,20.15
2023-03-17T05:02:46.875Z,20.75
2023-03-17T05:03:26.398Z,21.1
2023-03-17T05:03:47.921Z,21.13
2023-03-17T05:04:30.508Z,21.23
2023-03-17T05:04:47.643Z,21.53
2023-03-17T05:05:16.886Z,21.75
2023-03-17T05:05:46.877Z,21.9
2023-03-17T05:06:16.881Z,21.87
2023-03-17T05:06:46.873Z,21.77
2023-03-17T05:07:16.878Z,21.61
2023-03-17T05:07:46.879Z,21.48
2023-03-17T05:08:16.876Z,21.32
2023-03-17T05:08:46.881Z,21.24
2023-03-17T05:09:16.875Z,21.62
2023-03-17T05:09:46.879Z,22.04
2023-03-17T05:10:16.916Z,21.99
2023-03-17T05:10:46.877Z,21.56
2023-03-17T05:11:16.881Z,21.4
2023-03-17T05:11:46.877Z,21.36
2023-03-17T05:12:16.878Z,21.78
2023-03-17T05:12:46.876Z,22.01
2023-03-17T05:13:16.882Z,22.49
2023-03-17T05:13:46.879Z,22.76
2023-03-17T05:14:16.887Z,23
2023-03-17T05:14:46.881Z,22.71
2023-03-17T05:15:16.881Z,22.28
2023-03-17T05:15:46.872Z,22.38
2023-03-17T05:16:16.970Z,22.75
2023-03-17T05:16:46.902Z,22.74
2023-03-17T05:17:16.883Z,22.77
2023-03-17T05:17:46.877Z,22.96
2023-03-17T05:18:16.888Z,23.36
2023-03-17T05:18:46.877Z,23.65
2023-03-17T05:19:16.881Z,24.21
2023-03-17T05:19:46.889Z,24.93
2023-03-17T05:20:16.882Z,25.78
2023-03-17T05:20:46.879Z,26.63
2023-03-17T05:21:16.876Z,26.97
2023-03-17T05:21:46.878Z,26.8
2023-03-17T05:22:16.885Z,26.47
2023-03-17T05:22:46.877Z,25.37
2023-03-17T05:23:16.877Z,25.01
2023-03-17T05:23:46.878Z,24.87
2023-03-17T05:24:16.914Z,25.02
2023-03-17T05:24:46.879Z,24.98
2023-03-17T05:25:16.924Z,24.84
2023-03-17T05:25:46.926Z,24.26
2023-03-17T05:26:16.880Z,23.37
2023-03-17T05:26:46.917Z,23.07
2023-03-17T05:27:16.890Z,22.68
2023-03-17T05:27:46.888Z,22.4
2023-03-17T05:28:16.922Z,22.14
2023-03-17T05:28:46.924Z,22.27
2023-03-17T05:29:16.879Z,22.27
2023-03-17T05:29:46.884Z,22.37
2023-03-17T05:30:16.886Z,22.74
2023-03-17T05:30:46.919Z,23.37
2023-03-17T05:31:16.896Z,23.15
2023-03-17T05:31:46.881Z,22.84
2023-03-17T05:32:16.878Z,22.83
2023-03-17T05:32:46.974Z,22.74
2023-03-17T05:33:16.882Z,22.51
2023-03-17T05:33:46.889Z,22.14
2023-03-17T05:34:16.887Z,21.96
2023-03-17T05:34:46.880Z,22.07
2023-03-17T05:35:16.880Z,21.7
2023-03-17T05:35:46.914Z,21.81
2023-03-17T05:36:16.909Z,21.82
2023-03-17T05:36:46.885Z,21.97
2023-03-17T05:37:16.884Z,22.05
2023-03-17T05:37:46.881Z,21.52
2023-03-17T05:38:16.907Z,21.4
2023-03-17T05:38:46.880Z,21.68
2023-03-17T05:39:16.884Z,21.99
2023-03-17T05:39:46.898Z,22.9
2023-03-17T05:40:16.888Z,23.8
2023-03-17T05:40:46.881Z,24.77
2023-03-17T05:41:16.885Z,25.45
2023-03-17T05:41:46.887Z,25.78
2023-03-17T05:42:16.907Z,26.25
2023-03-17T05:42:46.885Z,26.21
2023-03-17T05:43:16.896Z,26.09
2023-03-17T05:43:46.995Z,25.89
2023-03-17T05:44:16.915Z,25.83
2023-03-17T05:44:46.886Z,25.56
2023-03-17T05:45:16.884Z,24.81
2023-03-17T05:45:46.903Z,23.94
2023-03-17T05:46:19.804Z,23.29
2023-03-17T05:46:48.028Z,23.15
2023-03-17T05:47:16.893Z,23.42
2023-03-17T05:47:46.887Z,23.8
2023-03-17T05:48:16.888Z,23.67
2023-03-17T05:48:46.906Z,23.49
2023-03-17T05:49:16.894Z,23.48
2023-03-17T05:49:46.902Z,23.2
2023-03-17T05:50:16.896Z,23.38
2023-03-17T05:50:46.890Z,23.72
2023-03-17T05:51:16.890Z,23.83
2023-03-17T05:51:46.893Z,23.93
2023-03-17T05:52:16.885Z,24.2
2023-03-17T05:52:46.886Z,24.29
2023-03-17T05:53:16.893Z,24.07
2023-03-17T05:53:46.889Z,24.21
2023-03-17T05:54:16.884Z,24.4
2023-03-17T05:54:46.902Z,23.82
2023-03-17T05:55:16.887Z,23.58
2023-03-17T05:55:46.887Z,23.89
2023-03-17T05:56:16.892Z,24.2
2023-03-17T05:56:46.890Z,24.03
2023-03-17T05:57:16.889Z,23.73
2023-03-17T05:57:46.890Z,23.39
2023-03-17T05:58:16.898Z,22.74
2023-03-17T05:58:46.910Z,22.65
2023-03-17T05:59:16.933Z,22.8
2023-03-17T05:59:46.900Z,22.42
2023-03-17T06:00:16.907Z,22.47
2023-03-17T06:00:46.891Z,22.59
2023-03-17T06:01:16.890Z,22.73
2023-03-17T06:01:46.892Z,23.05
2023-03-17T06:02:16.959Z,23.52
2023-03-17T06:02:47.001Z,23.82
2023-03-17T06:03:16.947Z,23.74
2023-03-17T06:03:46.945Z,24.3
2023-03-17T06:04:16.895Z,24.25
2023-03-17T06:04:46.894Z,24.32
2023-03-17T06:05:16.896Z,24.64
2023-03-17T06:05:46.895Z,24.39
2023-03-17T06:06:16.904Z,24.2
2023-03-17T06:06:46.898Z,23.96
2023-03-17T06:07:16.902Z,23.94
2023-03-17T06:07:54.012Z,24.11
2023-03-17T06:08:18.023Z,24.66
2023-03-17T06:08:46.897Z,25
2023-03-17T06:09:16.906Z,25.17
2023-03-17T06:09:46.897Z,25.3
2023-03-17T06:10:16.898Z,25.5
2023-03-17T06:10:46.902Z,24.93
2023-03-17T06:11:16.894Z,24.1
2023-03-17T06:11:46.896Z,23.18
2023-03-17T06:12:16.900Z,22.87
2023-03-17T06:12:46.901Z,23.3
2023-03-17T06:13:16.896Z,22.93
2023-03-17T06:13:46.902Z,22.73
2023-03-17T06:14:16.911Z,22.65
2023-03-17T06:14:46.905Z,23.16
2023-03-17T06:15:16.930Z,23.7
2023-03-17T06:15:46.911Z,24.39
2023-03-17T06:16:16.995Z,24.94
2023-03-17T06:16:46.902Z,24.76
2023-03-17T06:17:16.898Z,24.1
2023-03-17T06:17:46.900Z,23.32
2023-03-17T06:18:16.899Z,23.15
2023-03-17T06:18:46.899Z,23.55
2023-03-17T06:19:16.903Z,23.9
2023-03-17T06:19:49.368Z,24.35
2023-03-17T06:20:16.916Z,24.56
2023-03-17T06:20:46.925Z,24.4
2023-03-17T06:21:16.907Z,24.54
2023-03-17T06:21:46.905Z,24.79
2023-03-17T06:22:16.920Z,24.45
2023-03-17T06:23:02.817Z,24.35
2023-03-17T06:23:17.920Z,24.57
2023-03-17T06:23:46.906Z,25.23
2023-03-17T06:24:16.911Z,25.97
2023-03-17T06:24:46.912Z,26.17
2023-03-17T06:25:16.902Z,26.79
2023-03-17T06:25:46.907Z,26.87
2023-03-17T06:26:16.914Z,26.29
2023-03-17T06:26:46.919Z,26.18
2023-03-17T06:27:16.907Z,26.11
2023-03-17T06:27:46.908Z,25.77
2023-03-17T06:28:16.913Z,25.83
2023-03-17T06:28:46.909Z,26.16
2023-03-17T06:29:16.915Z,26.08
2023-03-17T06:29:46.912Z,25.75
2023-03-17T06:30:16.923Z,25.53
2023-03-17T06:30:46.964Z,25.37
2023-03-17T06:31:16.986Z,25.7
2023-03-17T06:31:46.906Z,26.23
2023-03-17T06:32:20.673Z,26.39
2023-03-17T06:32:47.821Z,26.37
2023-03-17T06:33:16.905Z,25.39
2023-03-17T06:33:46.910Z,25.1
2023-03-17T06:34:16.910Z,25.1
2023-03-17T06:34:46.930Z,25.12
2023-03-17T06:35:16.912Z,25.12
2023-03-17T06:35:46.977Z,25.05
2023-03-17T06:36:16.933Z,25.03
2023-03-17T06:36:46.911Z,25.36
2023-03-17T06:37:16.909Z,26.12
2023-03-17T06:37:46.905Z,26.49
2023-03-17T06:38:16.909Z,26.58
2023-03-17T06:38:46.916Z,26.8